Decoded Metar for OIZI (IRAN SHAHR in IRAN) (IATA:N/A) | Meteo·Mobile Aviation Weather
aviador You're here:

OIZI Decoded Metar

IRAN SHAHR in IRAN
Report Time2019-01-19 05:00:00
UTC Time2019-01-19 05:54:40
Flight Rules vfr VFR
WindCalm
Visibility8000 m
Phenomena:N/A
Clouds:N/A
Expected CloudBase > 2,800 ft AGL from Temp-Dew spread
CeilingNone
Temp15°C (ISA +4)
Dew Point08°C (63% RH)
AAT14.5°C
QNH1017 hPa
Density Alt2,408 ft
Elevation1,939 ft
Report Wrong Elevation
Raw Report
METAR OIZI 190500Z 00000KT 8000 NSC 15/08 Q1017=

Extra information for OIZI:More info

Metar Taf Metar & Taf Last 4 Metars F.Rules Stats Wind Profile Meteogram Temp Stats Airport Information Weather charts Add Link Nearby VenuesMetar ALERT Operation Metar Decoded Social comments